Time;durP1;ratioP1;P1;durP2;ratioP2;P2;SDS_P1;SDS_P2;PMS_P1;PMS_P2;Temp;Humidity;BMP_temperature;BMP_pressure;BME280_temperature;BME280_humidity;BME280_pressure;Samples;Min_cycle;Max_cycle;Signal;HPM_P1;HPM_P2
2023/03/22 00:02:17;;;;;;;10.55;2.88;;;11.70;99.90;;;;;;4769428;30;20036;-84
2023/03/22 00:04:43;;;;;;;8.48;2.40;;;11.70;99.90;;;;;;4769609;30;20034;-84
2023/03/22 00:07:09;;;;;;;7.18;2.53;;;11.70;99.90;;;;;;4769466;30;20032;-84
2023/03/22 00:09:35;;;;;;;9.18;2.72;;;11.60;99.90;;;;;;4769382;30;20093;-84
2023/03/22 00:12:01;;;;;;;8.35;2.00;;;11.70;99.90;;;;;;4769269;30;20032;-84
2023/03/22 00:14:26;;;;;;;6.55;1.85;;;11.70;99.90;;;;;;4769738;30;20093;-84
2023/03/22 00:16:52;;;;;;;8.82;2.60;;;11.70;99.90;;;;;;4769451;30;20063;-84
2023/03/22 00:19:18;;;;;;;11.82;2.17;;;11.70;99.90;;;;;;4753582;30;20465;-84
2023/03/22 00:21:45;;;;;;;6.88;2.00;;;11.70;99.90;;;;;;4769492;30;20032;-84
2023/03/22 00:24:11;;;;;;;8.98;2.20;;;11.70;99.90;;;;;;4770220;30;20473;-84
2023/03/22 00:26:37;;;;;;;8.70;2.05;;;11.70;99.90;;;;;;4770398;30;20050;-84
2023/03/22 00:29:03;;;;;;;8.32;1.98;;;11.70;99.90;;;;;;4769565;30;20035;-84
2023/03/22 00:31:28;;;;;;;10.18;2.40;;;11.70;99.90;;;;;;4768992;30;20031;-84
2023/03/22 00:33:54;;;;;;;9.48;2.17;;;11.60;99.90;;;;;;4769189;30;20094;-83
2023/03/22 00:36:20;;;;;;;11.27;2.30;;;11.60;99.90;;;;;;4769281;30;20035;-84
2023/03/22 00:38:45;;;;;;;8.63;1.90;;;11.60;99.90;;;;;;4768957;30;20039;-85
2023/03/22 00:41:16;;;;;;;8.15;1.55;;;11.50;99.90;;;;;;4754313;30;20465;-84
2023/03/22 00:43:43;;;;;;;9.52;1.75;;;11.60;99.90;;;;;;4770440;30;20028;-84
2023/03/22 00:46:10;;;;;;;7.97;1.70;;;11.50;99.90;;;;;;4784018;30;20031;-85
2023/03/22 00:48:36;;;;;;;5.85;1.52;;;11.50;99.90;;;;;;4769949;30;20062;-84
2023/03/22 00:51:02;;;;;;;9.25;2.10;;;11.60;99.90;;;;;;4769207;30;20458;-83
2023/03/22 00:53:28;;;;;;;8.27;1.90;;;11.60;99.90;;;;;;4769525;30;20126;-84
2023/03/22 00:55:55;;;;;;;7.40;1.85;;;11.60;99.90;;;;;;4769062;30;20472;-84
2023/03/22 00:58:20;;;;;;;9.27;1.90;;;11.50;99.90;;;;;;4770163;30;20492;-84
2023/03/22 01:00:47;;;;;;;5.90;1.75;;;11.50;99.90;;;;;;4769357;30;20035;-84
2023/03/22 01:03:14;;;;;;;24.13;3.35;;;11.50;99.90;;;;;;4783776;30;20492;-84
2023/03/22 01:05:43;;;;;;;9.05;1.95;;;11.50;99.90;;;;;;4769879;30;20122;-84
2023/03/22 01:08:09;;;;;;;10.55;2.42;;;11.50;99.90;;;;;;4769727;30;20063;-83
2023/03/22 01:10:39;;;;;;;9.23;2.47;;;11.40;99.90;;;;;;4768936;30;20469;-83
2023/03/22 01:13:06;;;;;;;7.95;2.35;;;11.40;99.90;;;;;;4784304;30;20036;-83
2023/03/22 01:15:32;;;;;;;9.25;2.80;;;11.40;99.90;;;;;;4769802;30;20032;-84
2023/03/22 01:17:59;;;;;;;6.28;2.15;;;11.40;99.90;;;;;;4770066;30;20032;-84
2023/03/22 01:20:25;;;;;;;8.20;2.25;;;11.50;99.90;;;;;;4784664;30;20345;-84
2023/03/22 01:22:51;;;;;;;5.97;2.10;;;11.50;99.90;;;;;;4768882;30;20035;-83
2023/03/22 01:25:17;;;;;;;6.82;1.95;;;11.50;99.90;;;;;;4769059;30;20028;-83
2023/03/22 01:27:42;;;;;;;6.15;1.80;;;11.50;99.90;;;;;;4769777;30;20387;-83
2023/03/22 01:30:09;;;;;;;6.57;2.20;;;11.50;99.90;;;;;;4770915;30;20055;-84
2023/03/22 01:32:35;;;;;;;6.80;1.90;;;11.50;99.90;;;;;;4789403;30;20051;-84
2023/03/22 01:35:01;;;;;;;9.85;2.03;;;11.60;99.90;;;;;;4774679;30;20041;-84
2023/03/22 01:37:27;;;;;;;6.75;1.83;;;11.60;99.90;;;;;;4774826;30;20124;-84
2023/03/22 01:39:56;;;;;;;7.22;1.70;;;11.60;99.90;;;;;;4759854;30;20118;-84
2023/03/22 01:42:22;;;;;;;7.80;1.70;;;11.60;99.90;;;;;;4775056;30;20135;-84
2023/03/22 01:45:13;;;;;;;11.63;2.72;;;11.60;99.90;;;;;;4789625;30;20032;-84
2023/03/22 01:47:50;;;;;;;7.10;2.33;;;11.60;99.90;;;;;;4774544;30;20043;-84
2023/03/22 01:50:17;;;;;;;8.15;2.20;;;11.60;99.90;;;;;;4790043;30;20035;-84
2023/03/22 01:52:43;;;;;;;5.68;2.13;;;11.50;99.90;;;;;;4774904;30;20035;-84
2023/03/22 01:55:10;;;;;;;9.25;2.75;;;11.60;99.90;;;;;;4775113;30;20032;-84
2023/03/22 01:57:37;;;;;;;8.73;2.33;;;11.60;99.90;;;;;;4774546;30;20068;-83
2023/03/22 02:00:17;;;;;;;10.50;2.70;;;11.60;99.90;;;;;;4774447;30;20031;-84
2023/03/22 02:02:45;;;;;;;5.45;2.20;;;11.60;99.90;;;;;;4790215;30;20038;-83
2023/03/22 02:05:11;;;;;;;7.82;2.35;;;11.70;99.90;;;;;;4774341;30;20469;-84
2023/03/22 02:07:39;;;;;;;10.13;3.05;;;11.70;99.90;;;;;;4789112;30;20055;-84
2023/03/22 02:10:12;;;;;;;8.23;2.88;;;11.70;99.90;;;;;;4790366;30;20038;-84
2023/03/22 02:13:19;;;;;;;8.50;2.60;;;11.70;99.90;;;;;;4790487;30;20031;-85
2023/03/22 02:16:00;;;;;;;7.93;3.28;;;11.80;99.90;;;;;;4752857;30;20159;-85
2023/03/22 02:18:28;;;;;;;11.20;3.70;;;11.80;99.90;;;;;;4752547;30;20036;-84
2023/03/22 02:21:27;;;;;;;9.68;3.50;;;11.80;99.90;;;;;;4774220;30;20039;-84
2023/03/22 02:24:22;;;;;;;10.43;3.70;;;11.70;99.90;;;;;;4790459;30;20027;-84
2023/03/22 02:27:07;;;;;;;7.68;4.22;;;11.70;99.90;;;;;;4774001;30;20030;-83
2023/03/22 02:29:46;;;;;;;9.13;5.00;;;11.70;99.90;;;;;;4790245;30;20059;-83
2023/03/22 02:32:39;;;;;;;8.45;5.35;;;11.70;99.90;;;;;;4773865;30;20031;-83
2023/03/22 02:35:07;;;;;;;;;;;11.70;99.90;;;;;;4774203;30;20147;-83
2023/03/22 02:37:39;;;;;;;9.18;5.35;;;11.60;99.90;;;;;;4789707;30;19905;-83
2023/03/22 02:40:32;;;;;;;14.23;6.85;;;11.60;99.90;;;;;;4773525;29;20037;-83
2023/03/22 02:43:15;;;;;;;;;;;11.60;99.90;;;;;;4790073;30;20027;-83
2023/03/22 02:45:55;;;;;;;11.77;6.95;;;11.60;99.90;;;;;;4788386;30;19909;-83
2023/03/22 02:48:32;;;;;;;15.57;8.48;;;11.60;99.90;;;;;;4789476;30;20164;-83
2023/03/22 02:51:07;;;;;;;18.98;9.05;;;11.60;99.90;;;;;;4774061;30;20032;-83
2023/03/22 02:53:47;;;;;;;16.10;8.88;;;11.60;99.90;;;;;;4788471;30;20110;-83
2023/03/22 02:56:47;;;;;;;14.55;9.05;;;11.60;99.90;;;;;;4789545;30;20032;-82
2023/03/22 02:59:16;;;;;;;14.82;9.43;;;11.50;99.90;;;;;;4787424;30;20067;-83
2023/03/22 03:01:47;;;;;;;17.08;9.85;;;11.50;99.90;;;;;;4788285;30;20058;-83
2023/03/22 03:04:18;;;;;;;12.95;9.43;;;11.50;99.90;;;;;;4789362;30;20031;-83
2023/03/22 03:06:47;;;;;;;16.02;10.18;;;11.60;99.90;;;;;;4789526;30;20114;-83
2023/03/22 03:09:18;;;;;;;16.95;9.68;;;11.60;99.90;;;;;;4789385;30;20038;-83
2023/03/22 03:11:49;;;;;;;16.50;10.13;;;11.60;99.90;;;;;;4788408;30;20027;-83
2023/03/22 03:14:24;;;;;;;17.85;9.63;;;11.60;99.90;;;;;;4789889;30;20027;-83
2023/03/22 03:17:32;;;;;;;13.73;9.20;;;11.60;99.90;;;;;;4789306;30;20023;-83
2023/03/22 03:20:20;;;;;;;12.73;8.88;;;11.60;99.90;;;;;;4789452;30;20062;-83
2023/03/22 03:23:12;;;;;;;15.80;9.23;;;11.50;99.90;;;;;;4789202;30;20114;-83
2023/03/22 03:26:19;;;;;;;14.77;9.38;;;11.50;99.90;;;;;;4789722;30;20336;-83
2023/03/22 03:29:00;;;;;;;13.32;8.85;;;11.50;99.90;;;;;;4788031;30;20176;-83
2023/03/22 03:31:34;;;;;;;11.93;8.70;;;11.50;99.90;;;;;;4787759;30;20035;-83
2023/03/22 03:34:18;;;;;;;12.90;8.35;;;11.50;99.90;;;;;;4789184;30;20111;-83
2023/03/22 03:36:52;;;;;;;13.48;7.85;;;11.50;99.90;;;;;;4788348;30;20249;-82
2023/03/22 03:39:20;;;;;;;12.30;7.90;;;11.50;99.90;;;;;;4788749;30;20162;-82
2023/03/22 03:41:48;;;;;;;12.60;8.00;;;11.50;99.90;;;;;;4788453;30;20038;-83
2023/03/22 03:44:16;;;;;;;13.40;7.85;;;11.50;99.90;;;;;;4787910;30;20081;-83
2023/03/22 03:46:44;;;;;;;12.00;8.50;;;11.50;99.90;;;;;;4788590;30;20114;-82
2023/03/22 03:49:11;;;;;;;12.70;8.25;;;11.40;99.90;;;;;;4788415;30;20488;-82
2023/03/22 03:51:55;;;;;;;12.57;8.00;;;11.50;99.90;;;;;;4772425;29;20172;-82
2023/03/22 03:54:21;;;;;;;13.60;7.72;;;11.50;99.90;;;;;;4788726;30;20461;-82
2023/03/22 03:56:47;;;;;;;13.10;7.20;;;11.50;99.90;;;;;;4772791;30;20031;-82
2023/03/22 03:59:17;;;;;;;10.80;7.07;;;11.40;99.90;;;;;;4788869;30;20353;-83
2023/03/22 04:01:51;;;;;;;14.25;7.88;;;11.40;99.90;;;;;;4788360;30;20034;-82
2023/03/22 04:04:35;;;;;;;11.63;7.07;;;11.40;99.90;;;;;;4787320;30;20035;-82
2023/03/22 04:07:03;;;;;;;11.82;7.25;;;11.40;99.90;;;;;;4775838;30;20040;-82
2023/03/22 04:09:31;;;;;;;12.27;7.50;;;11.40;99.90;;;;;;4787212;30;20536;-82
2023/03/22 04:11:58;;;;;;;11.90;6.93;;;11.40;99.90;;;;;;4788427;30;20457;-83
2023/03/22 04:14:24;;;;;;;11.35;6.40;;;11.40;99.90;;;;;;4787736;30;20024;-82
2023/03/22 04:16:51;;;;;;;13.07;6.88;;;11.40;99.90;;;;;;4788703;30;20039;-82
2023/03/22 04:19:17;;;;;;;11.40;6.28;;;11.30;99.90;;;;;;4788409;30;20035;-82
2023/03/22 04:21:42;;;;;;;12.25;6.47;;;11.30;99.90;;;;;;4772270;30;20419;-83
2023/03/22 04:24:09;;;;;;;13.45;6.07;;;11.30;99.90;;;;;;4757419;30;20031;-82
2023/03/22 04:26:35;;;;;;;9.85;6.05;;;11.30;99.90;;;;;;4787093;30;20118;-82
2023/03/22 04:29:03;;;;;;;9.55;5.88;;;11.30;99.90;;;;;;4772260;30;20399;-81
2023/03/22 04:31:30;;;;;;;11.23;5.78;;;11.30;99.90;;;;;;4772673;30;20035;-82
2023/03/22 04:33:56;;;;;;;10.00;5.65;;;11.30;99.90;;;;;;4788365;30;20056;-82
2023/03/22 04:36:23;;;;;;;8.98;5.80;;;11.30;99.90;;;;;;4788346;30;20104;-82
2023/03/22 04:38:50;;;;;;;9.98;5.50;;;11.30;99.90;;;;;;4772022;30;20468;-82
2023/03/22 04:41:16;;;;;;;11.32;6.57;;;11.30;99.90;;;;;;4788257;30;20039;-82
2023/03/22 04:43:45;;;;;;;7.70;5.20;;;11.30;99.90;;;;;;4788699;30;20061;-82
2023/03/22 04:46:12;;;;;;;10.55;5.15;;;11.30;99.90;;;;;;4788463;30;20035;-83
2023/03/22 04:48:40;;;;;;;7.72;4.65;;;11.20;99.90;;;;;;4786895;30;20476;-83
2023/03/22 04:51:08;;;;;;;11.70;5.53;;;11.20;99.90;;;;;;4772796;30;20066;-83
2023/03/22 04:53:37;;;;;;;9.25;4.63;;;11.20;99.90;;;;;;4787128;30;20038;-83
2023/03/22 04:56:08;;;;;;;8.43;4.25;;;11.20;99.90;;;;;;4788245;30;20035;-82
2023/03/22 04:58:41;;;;;;;12.93;5.22;;;11.20;99.90;;;;;;4787583;30;20084;-82
2023/03/22 05:01:08;;;;;;;8.48;4.95;;;11.20;99.90;;;;;;4772572;30;20122;-82
2023/03/22 05:03:35;;;;;;;11.60;4.25;;;11.20;99.90;;;;;;4788397;29;20042;-83
2023/03/22 05:06:02;;;;;;;9.40;4.30;;;11.10;99.90;;;;;;4791633;30;20027;-83
2023/03/22 05:08:29;;;;;;;11.00;4.18;;;11.20;99.90;;;;;;4791042;30;20464;-83
2023/03/22 05:10:57;;;;;;;7.78;4.82;;;11.10;99.90;;;;;;4791515;30;20031;-83
2023/03/22 05:13:25;;;;;;;7.35;3.78;;;11.10;99.90;;;;;;4790147;30;20106;-83
2023/03/22 05:15:50;;;;;;;7.68;4.07;;;11.10;99.90;;;;;;4791139;30;20052;-83
2023/03/22 05:18:19;;;;;;;7.75;4.45;;;11.00;99.90;;;;;;4791357;30;20039;-82
2023/03/22 05:20:46;;;;;;;8.38;3.88;;;11.10;99.90;;;;;;4791297;30;20083;-83
2023/03/22 05:23:12;;;;;;;10.05;4.05;;;11.10;99.90;;;;;;4791548;30;20057;-83
2023/03/22 05:25:38;;;;;;;7.93;4.03;;;11.10;99.90;;;;;;4791268;30;20031;-83
2023/03/22 05:28:07;;;;;;;8.25;3.78;;;11.10;99.90;;;;;;4790209;30;20461;-83
2023/03/22 05:30:33;;;;;;;7.28;3.42;;;11.10;99.90;;;;;;4774956;30;20039;-82
2023/03/22 05:33:02;;;;;;;12.40;3.75;;;11.20;99.90;;;;;;4759917;30;20035;-82
2023/03/22 05:35:32;;;;;;;9.43;3.50;;;11.10;99.90;;;;;;4775582;30;20031;-82
2023/03/22 05:38:01;;;;;;;7.53;3.72;;;11.10;99.90;;;;;;4791137;30;20042;-84
2023/03/22 05:40:27;;;;;;;12.55;4.03;;;11.10;99.90;;;;;;4789738;30;20524;-83
2023/03/22 05:42:53;;;;;;;9.25;3.75;;;11.10;99.90;;;;;;4789714;30;20146;-83
2023/03/22 05:45:20;;;;;;;9.63;3.25;;;11.10;99.90;;;;;;4775289;30;20122;-83
2023/03/22 05:47:47;;;;;;;9.07;3.80;;;11.10;99.90;;;;;;4791047;30;20035;-82
2023/03/22 05:50:16;;;;;;;6.95;3.08;;;11.10;99.90;;;;;;4790318;30;20357;-83
2023/03/22 05:52:43;;;;;;;8.75;3.65;;;11.10;99.90;;;;;;4774549;30;20105;-83
2023/03/22 05:55:11;;;;;;;6.25;3.50;;;11.10;99.90;;;;;;4774667;30;20028;-83
2023/03/22 05:57:37;;;;;;;9.15;3.13;;;11.00;99.90;;;;;;4775202;30;20130;-83
2023/03/22 06:00:08;;;;;;;8.82;3.40;;;11.00;99.90;;;;;;4774525;30;20031;-83
2023/03/22 06:02:34;;;;;;;9.82;3.40;;;11.00;99.90;;;;;;4774924;30;20031;-83
2023/03/22 06:04:59;;;;;;;7.28;2.83;;;11.00;99.90;;;;;;4790497;30;20422;-82
2023/03/22 06:07:25;;;;;;;10.63;3.22;;;11.00;99.90;;;;;;4774116;30;20525;-82
2023/03/22 06:09:51;;;;;;;7.80;2.83;;;11.00;99.90;;;;;;4790472;30;20504;-83
2023/03/22 06:12:18;;;;;;;6.20;2.60;;;11.00;99.90;;;;;;4774072;30;20062;-83
2023/03/22 06:14:44;;;;;;;9.68;2.80;;;11.00;99.90;;;;;;4774687;29;20057;-83
2023/03/22 06:17:10;;;;;;;9.65;2.78;;;11.00;99.90;;;;;;4774219;30;20036;-83
2023/03/22 06:19:36;;;;;;;8.23;2.60;;;11.00;99.90;;;;;;4774425;30;20047;-83
2023/03/22 06:22:02;;;;;;;9.55;2.47;;;11.00;99.90;;;;;;4790314;30;20040;-83
2023/03/22 06:24:27;;;;;;;8.25;2.67;;;11.00;99.90;;;;;;4774204;30;20058;-83
2023/03/22 06:26:53;;;;;;;11.43;2.63;;;11.00;99.90;;;;;;4774055;30;20492;-83
2023/03/22 06:29:19;;;;;;;8.70;2.70;;;11.00;99.90;;;;;;4790072;30;20118;-82
2023/03/22 06:31:44;;;;;;;6.50;2.05;;;11.00;99.90;;;;;;4774568;30;20058;-82
2023/03/22 06:34:13;;;;;;;10.32;2.78;;;11.00;99.90;;;;;;4773668;30;20055;-81
2023/03/22 06:36:39;;;;;;;7.07;2.28;;;11.00;99.90;;;;;;4773767;30;20028;-82
2023/03/22 06:39:05;;;;;;;12.00;2.53;;;11.00;99.90;;;;;;4790301;30;20031;-83
2023/03/22 06:41:31;;;;;;;11.85;2.72;;;11.00;99.90;;;;;;4774204;30;20032;-82
2023/03/22 06:43:56;;;;;;;8.05;2.20;;;11.00;99.90;;;;;;4774085;30;20035;-81
2023/03/22 06:46:22;;;;;;;6.93;1.98;;;11.00;99.90;;;;;;4790864;30;20043;-83
2023/03/22 06:48:48;;;;;;;8.48;3.13;;;11.00;99.90;;;;;;4774312;30;20039;-83
2023/03/22 06:51:13;;;;;;;8.68;2.70;;;11.00;99.90;;;;;;4773330;30;20030;-79
2023/03/22 06:53:39;;;;;;;6.88;2.03;;;10.90;99.90;;;;;;4772988;30;20051;-80
2023/03/22 06:56:05;;;;;;;12.85;2.55;;;10.90;99.90;;;;;;4773952;30;20039;-80
2023/03/22 06:58:31;;;;;;;10.75;2.50;;;11.00;99.90;;;;;;4789414;30;20035;-79
2023/03/22 07:00:57;;;;;;;5.22;1.60;;;11.00;99.90;;;;;;4773502;30;20032;-79
2023/03/22 07:03:23;;;;;;;8.55;2.53;;;11.10;99.90;;;;;;4789620;30;20372;-79
2023/03/22 07:05:49;;;;;;;7.30;2.30;;;11.20;99.90;;;;;;4773240;30;20035;-79
2023/03/22 07:08:15;;;;;;;8.13;2.25;;;11.20;99.90;;;;;;4789273;30;20035;-78
2023/03/22 07:10:41;;;;;;;8.82;2.50;;;11.20;99.90;;;;;;4774144;30;20091;-78
2023/03/22 07:13:06;;;;;;;8.98;3.20;;;11.20;99.90;;;;;;4788072;30;20031;-78
2023/03/22 07:15:33;;;;;;;6.78;1.83;;;11.20;99.90;;;;;;4758405;30;20027;-78
2023/03/22 07:18:00;;;;;;;6.35;1.83;;;11.20;99.90;;;;;;4773828;30;20040;-78
2023/03/22 07:20:26;;;;;;;11.77;2.40;;;11.30;99.90;;;;;;4788187;30;20034;-79
2023/03/22 07:22:52;;;;;;;9.90;2.47;;;11.30;99.90;;;;;;4788938;30;20084;-77
2023/03/22 07:25:18;;;;;;;11.70;2.53;;;11.30;99.90;;;;;;4790054;30;20198;-81
2023/03/22 07:27:44;;;;;;;9.30;2.22;;;11.30;99.90;;;;;;4788171;29;20058;-80
2023/03/22 07:30:10;;;;;;;8.90;2.10;;;11.40;99.90;;;;;;4773896;30;20101;-80
2023/03/22 07:32:38;;;;;;;7.43;2.15;;;11.40;99.90;;;;;;4773553;30;20027;-81
2023/03/22 07:35:04;;;;;;;7.65;1.98;;;11.40;99.90;;;;;;4789561;30;20051;-80
2023/03/22 07:37:30;;;;;;;6.78;2.63;;;11.40;99.90;;;;;;4758059;30;20034;-77
2023/03/22 07:39:55;;;;;;;7.05;1.95;;;11.40;99.90;;;;;;4787566;30;20096;-77
2023/03/22 07:42:21;;;;;;;10.20;2.25;;;11.40;99.90;;;;;;4789519;30;20093;-75
2023/03/22 07:44:48;;;;;;;10.30;2.30;;;11.40;99.90;;;;;;4789181;30;20035;-78
2023/03/22 07:47:14;;;;;;;9.52;2.38;;;11.40;99.90;;;;;;4773615;30;20529;-76
2023/03/22 07:49:40;;;;;;;9.15;2.55;;;11.40;99.90;;;;;;4788678;30;20043;-76
2023/03/22 07:52:06;;;;;;;11.80;2.92;;;11.40;99.90;;;;;;4772908;30;20091;-76
2023/03/22 07:54:32;;;;;;;8.45;2.28;;;11.40;99.90;;;;;;4788619;30;20027;-79
2023/03/22 07:56:58;;;;;;;9.15;2.67;;;11.40;99.90;;;;;;4788720;30;20510;-80
2023/03/22 07:59:23;;;;;;;8.93;2.45;;;11.40;99.90;;;;;;4788607;30;20495;-80
2023/03/22 08:01:49;;;;;;;7.43;2.63;;;11.40;99.90;;;;;;4772904;30;20058;-79
2023/03/22 08:04:15;;;;;;;9.95;2.58;;;11.50;99.90;;;;;;4788844;30;20107;-80
2023/03/22 08:06:41;;;;;;;11.85;2.88;;;11.50;99.90;;;;;;4772573;30;20114;-79
2023/03/22 08:09:07;;;;;;;4.68;2.00;;;11.50;99.90;;;;;;4788656;30;20410;-79
2023/03/22 08:11:34;;;;;;;10.40;2.63;;;11.50;99.90;;;;;;4789075;30;20147;-79
2023/03/22 08:14:00;;;;;;;11.77;3.03;;;11.60;99.90;;;;;;4788277;30;20110;-78
2023/03/22 08:16:25;;;;;;;8.73;2.22;;;11.60;99.90;;;;;;4772488;30;20626;-80
2023/03/22 08:18:51;;;;;;;12.57;3.28;;;11.60;99.90;;;;;;4788311;30;20063;-80
2023/03/22 08:21:17;;;;;;;13.32;2.88;;;11.60;99.90;;;;;;4788546;30;20487;-79
2023/03/22 08:23:43;;;;;;;13.75;2.22;;;11.60;99.90;;;;;;4772875;30;20050;-79
2023/03/22 08:26:09;;;;;;;8.70;2.13;;;11.60;99.90;;;;;;4788542;30;20031;-79
2023/03/22 08:28:35;;;;;;;8.10;2.30;;;11.60;99.90;;;;;;4789058;30;20047;-81
2023/03/22 08:31:08;;;;;;;14.43;2.50;;;11.60;99.90;;;;;;4790482;30;20525;-82
2023/03/22 08:33:34;;;;;;;10.07;2.80;;;11.70;99.90;;;;;;4794164;30;20129;-82
2023/03/22 08:36:08;;;;;;;7.53;2.25;;;11.70;99.90;;;;;;4773287;30;20035;-82
2023/03/22 08:38:34;;;;;;;10.85;1.90;;;11.70;99.90;;;;;;4773178;30;20496;-82
2023/03/22 08:41:00;;;;;;;13.68;2.63;;;11.80;99.90;;;;;;4775778;30;20036;-80
2023/03/22 08:43:25;;;;;;;11.48;3.08;;;11.80;99.90;;;;;;4775052;30;20107;-81
2023/03/22 08:45:51;;;;;;;10.30;2.75;;;11.90;99.90;;;;;;4775646;30;20100;-78
2023/03/22 08:48:17;;;;;;;9.73;2.40;;;11.80;99.90;;;;;;4772530;30;20491;-78
2023/03/22 08:50:43;;;;;;;10.73;2.67;;;11.80;99.90;;;;;;4773170;30;20473;-80
2023/03/22 08:53:09;;;;;;;14.40;3.00;;;11.90;99.90;;;;;;4773908;30;20031;-80
2023/03/22 08:55:35;;;;;;;9.20;2.50;;;11.90;99.90;;;;;;4774378;30;20031;-81
2023/03/22 08:58:02;;;;;;;9.98;2.90;;;12.00;99.90;;;;;;4773913;30;20032;-81
2023/03/22 09:00:29;;;;;;;11.02;3.00;;;12.10;99.90;;;;;;4773027;30;20040;-81
2023/03/22 09:02:55;;;;;;;10.95;2.95;;;12.10;99.90;;;;;;4772589;30;20043;-81
2023/03/22 09:05:20;;;;;;;9.65;2.42;;;12.10;99.90;;;;;;4774469;30;20134;-81
2023/03/22 09:07:50;;;;;;;9.65;2.38;;;12.20;99.90;;;;;;4774796;30;20035;-81
2023/03/22 09:10:16;;;;;;;9.18;2.50;;;12.20;99.90;;;;;;4774252;30;20104;-81
2023/03/22 09:12:42;;;;;;;8.52;2.67;;;12.20;99.90;;;;;;4774073;30;20031;-81
2023/03/22 09:15:08;;;;;;;14.52;2.70;;;12.20;99.90;;;;;;4773335;30;20059;-83
2023/03/22 09:17:34;;;;;;;8.95;1.95;;;12.20;99.90;;;;;;4773081;30;20050;-85
2023/03/22 09:19:59;;;;;;;12.75;2.47;;;12.20;99.90;;;;;;4774557;30;20382;-84
2023/03/22 09:22:25;;;;;;;8.88;2.38;;;12.30;99.90;;;;;;4774929;30;20129;-83
2023/03/22 09:24:51;;;;;;;9.45;1.88;;;12.30;99.90;;;;;;4775390;30;20128;-83
2023/03/22 09:27:17;;;;;;;9.18;1.80;;;12.40;99.90;;;;;;4774694;30;20036;-85
2023/03/22 09:29:42;;;;;;;9.98;1.75;;;12.40;99.90;;;;;;4774201;30;20044;-80
2023/03/22 09:32:08;;;;;;;9.15;2.03;;;12.50;99.90;;;;;;4771969;30;20062;-78
2023/03/22 09:34:34;;;;;;;7.85;1.30;;;12.50;99.90;;;;;;4771641;30;20056;-79
2023/03/22 09:37:01;;;;;;;10.43;2.08;;;12.50;99.90;;;;;;4771677;30;20051;-79
2023/03/22 09:39:27;;;;;;;7.65;1.60;;;12.50;99.90;;;;;;4787059;30;20043;-78
2023/03/22 09:42:03;;;;;;;11.02;1.75;;;12.50;99.90;;;;;;4786660;30;20101;-79
2023/03/22 09:44:36;;;;;;;9.55;1.67;;;12.60;99.90;;;;;;4773030;30;20036;-79
2023/03/22 09:47:05;;;;;;;7.85;1.38;;;12.50;99.90;;;;;;4772873;30;20442;-79
2023/03/22 09:49:41;;;;;;;8.93;1.48;;;12.50;99.90;;;;;;4772339;30;20126;-80
2023/03/22 09:52:12;;;;;;;8.00;1.80;;;12.40;99.90;;;;;;4772604;30;20031;-76
2023/03/22 09:54:41;;;;;;;12.32;1.60;;;12.40;99.90;;;;;;4772661;30;20074;-77
2023/03/22 09:57:10;;;;;;;9.93;1.45;;;12.40;99.90;;;;;;4772876;30;20063;-78
2023/03/22 09:59:59;;;;;;;9.98;2.10;;;12.40;99.90;;;;;;4772741;30;20108;-78
2023/03/22 10:02:51;;;;;;;10.98;1.23;;;12.40;99.90;;;;;;4771938;30;20055;-79
2023/03/22 10:05:47;;;;;;;9.88;1.20;;;12.40;99.90;;;;;;4771645;30;20369;-80
2023/03/22 10:08:19;;;;;;;10.38;1.10;;;12.40;99.90;;;;;;4772281;30;20143;-78
2023/03/22 10:10:45;;;;;;;11.60;1.77;;;12.40;99.90;;;;;;4772885;30;20366;-80
2023/03/22 10:13:28;;;;;;;8.25;1.20;;;12.40;99.90;;;;;;4771139;30;20507;-81
2023/03/22 10:16:01;;;;;;;5.80;1.05;;;12.40;99.90;;;;;;4772374;30;20031;-80
2023/03/22 10:18:35;;;;;;;7.85;1.00;;;12.40;99.90;;;;;;4772590;30;20043;-80
2023/03/22 10:21:06;;;;;;;11.18;2.08;;;12.40;99.90;;;;;;4786652;30;20506;-80
2023/03/22 10:23:50;;;;;;;9.10;1.30;;;12.40;99.90;;;;;;4772439;30;20038;-79
2023/03/22 10:26:24;;;;;;;8.02;1.10;;;12.30;99.90;;;;;;4772276;30;20042;-79
2023/03/22 10:29:02;;;;;;;6.43;1.35;;;12.30;99.90;;;;;;4772421;30;20036;-81
2023/03/22 10:31:29;;;;;;;10.93;1.40;;;12.30;99.90;;;;;;4772235;30;20032;-79
2023/03/22 10:34:02;;;;;;;9.70;1.00;;;12.30;99.90;;;;;;4778666;30;20059;-79
2023/03/22 10:36:33;;;;;;;10.82;1.25;;;12.30;99.90;;;;;;4789068;30;20480;-77
2023/03/22 10:39:25;;;;;;;9.57;1.25;;;12.20;99.90;;;;;;4789233;30;20089;-80
2023/03/22 10:41:53;;;;;;;4.63;0.90;;;12.30;99.90;;;;;;4790455;30;20039;-83
2023/03/22 10:44:20;;;;;;;8.70;1.00;;;12.30;99.90;;;;;;4792098;30;20043;-78
2023/03/22 10:46:52;;;;;;;9.82;1.35;;;12.30;99.90;;;;;;4777966;30;20043;-82
2023/03/22 10:49:34;;;;;;;7.55;0.95;;;12.30;99.90;;;;;;4792786;30;20502;-80
2023/03/22 10:52:15;;;;;;;8.85;1.55;;;12.30;99.90;;;;;;4789737;30;20028;-78
2023/03/22 10:54:41;;;;;;;7.40;0.93;;;12.20;99.90;;;;;;4789755;30;20461;-79
2023/03/22 10:57:07;;;;;;;7.40;1.15;;;12.20;99.90;;;;;;4789689;30;20040;-76
2023/03/22 10:59:43;;;;;;;8.45;1.70;;;12.10;99.90;;;;;;4773249;30;20485;-78
2023/03/22 11:02:25;;;;;;;11.75;1.40;;;12.10;99.90;;;;;;4789406;29;20035;-79
2023/03/22 11:04:53;;;;;;;10.05;1.52;;;12.00;99.90;;;;;;4789127;30;20503;-79
2023/03/22 11:07:32;;;;;;;7.57;1.30;;;12.00;99.90;;;;;;4790448;30;20035;-81
2023/03/22 11:10:10;;;;;;;7.10;1.20;;;12.00;99.90;;;;;;4790358;30;20071;-80
2023/03/22 11:12:38;;;;;;;8.95;1.10;;;12.00;99.90;;;;;;4789654;30;20041;-80
2023/03/22 11:15:05;;;;;;;13.63;1.52;;;12.00;99.90;;;;;;4789358;30;20084;-77
2023/03/22 11:17:31;;;;;;;10.52;1.77;;;12.00;99.90;;;;;;4788679;30;20059;-75
2023/03/22 11:20:00;;;;;;;10.20;1.40;;;12.00;99.90;;;;;;4789300;30;20122;-78
2023/03/22 11:22:38;;;;;;;7.65;1.13;;;12.00;99.90;;;;;;4787681;30;20080;-77
2023/03/22 11:25:25;;;;;;;8.20;1.38;;;12.00;99.90;;;;;;4789627;30;20058;-76
2023/03/22 11:27:52;;;;;;;7.50;1.55;;;11.90;99.90;;;;;;4789031;30;20034;-77
2023/03/22 11:30:22;;;;;;;9.10;1.23;;;11.90;99.90;;;;;;4788736;30;20047;-77
2023/03/22 11:32:48;;;;;;;7.22;1.50;;;11.90;99.90;;;;;;4788756;30;20096;-76
2023/03/22 11:35:24;;;;;;;6.13;1.10;;;11.90;99.90;;;;;;4787217;30;20051;-77
2023/03/22 11:37:52;;;;;;;5.63;0.85;;;11.90;99.90;;;;;;4772727;30;20522;-77
2023/03/22 11:40:21;;;;;;;6.53;1.27;;;11.90;99.90;;;;;;4788182;30;20136;-77
2023/03/22 11:42:51;;;;;;;11.85;1.88;;;11.90;99.90;;;;;;4788877;30;20103;-78
2023/03/22 11:45:31;;;;;;;8.65;1.80;;;11.90;99.90;;;;;;4788119;30;20031;-79
2023/03/22 11:48:04;;;;;;;7.03;1.20;;;11.90;99.90;;;;;;4788967;30;20073;-78
2023/03/22 11:50:36;;;;;;;6.47;1.20;;;11.90;99.90;;;;;;4788533;30;20031;-78
2023/03/22 11:53:06;;;;;;;6.85;1.45;;;11.90;99.90;;;;;;4788636;30;20039;-80
2023/03/22 11:55:35;;;;;;;9.32;1.30;;;11.90;99.90;;;;;;4788738;30;20031;-84
2023/03/22 11:58:05;;;;;;;6.72;1.65;;;11.80;99.90;;;;;;4789340;30;20031;-85
2023/03/22 12:00:36;;;;;;;7.88;1.10;;;11.80;99.90;;;;;;4788998;30;20038;-85
2023/03/22 12:03:25;;;;;;;5.47;1.48;;;11.80;99.90;;;;;;4788934;30;20505;-85
2023/03/22 12:05:51;;;;;;;6.72;1.08;;;11.90;99.90;;;;;;4788039;30;20039;-85
2023/03/22 12:08:35;;;;;;;7.60;1.27;;;11.90;99.90;;;;;;4788905;30;20043;-86
2023/03/22 12:11:07;;;;;;;5.63;1.30;;;11.90;99.90;;;;;;4772932;30;20465;-85
2023/03/22 12:13:51;;;;;;;6.03;1.23;;;11.90;99.90;;;;;;4788928;30;20062;-85
2023/03/22 12:16:23;;;;;;;7.03;1.42;;;11.90;99.90;;;;;;4787072;30;20031;-85
2023/03/22 12:19:14;;;;;;;6.10;1.20;;;11.90;99.90;;;;;;4787253;30;20039;-85
2023/03/22 12:21:41;;;;;;;5.22;1.20;;;11.90;99.90;;;;;;4787999;30;20039;-84
2023/03/22 12:24:33;;;;;;;6.28;1.33;;;11.90;99.90;;;;;;4772812;30;20064;-84
2023/03/22 12:27:22;;;;;;;10.65;1.33;;;11.90;99.90;;;;;;4788173;30;20050;-86
2023/03/22 12:29:58;;;;;;;8.45;1.60;;;11.90;99.90;;;;;;4772718;30;20104;-85
2023/03/22 12:32:32;;;;;;;9.00;1.35;;;11.90;99.90;;;;;;4789196;30;20103;-84
2023/03/22 12:34:59;;;;;;;6.68;1.30;;;11.90;99.90;;;;;;4786968;30;20479;-84
2023/03/22 12:37:28;;;;;;;10.25;1.92;;;11.90;99.90;;;;;;4787141;30;20574;-86
2023/03/22 12:40:21;;;;;;;5.97;1.35;;;11.90;99.90;;;;;;4788027;30;20039;-86
2023/03/22 12:43:24;;;;;;;5.10;1.15;;;12.00;99.90;;;;;;4788407;30;20031;-84
2023/03/22 12:45:56;;;;;;;5.35;1.00;;;12.00;99.90;;;;;;4788580;30;20035;-82
2023/03/22 12:48:35;;;;;;;7.63;1.20;;;12.00;99.90;;;;;;4788552;30;20035;-77
2023/03/22 12:51:10;;;;;;;4.25;1.30;;;12.10;99.90;;;;;;4788120;30;20035;-75
2023/03/22 12:53:42;;;;;;;8.20;1.35;;;12.10;99.90;;;;;;4787836;30;20046;-76
2023/03/22 12:56:15;;;;;;;8.30;1.23;;;12.10;99.90;;;;;;4772585;30;20032;-74
2023/03/22 12:58:42;;;;;;;;;;;12.10;99.90;;;;;;4772137;30;20377;-74
2023/03/22 13:01:28;;;;;;;8.18;1.27;;;12.10;99.90;;;;;;4787230;30;19909;-77